sensor_id;sensor_type;location;lat;lon;timestamp;P1;durP1;ratioP1;P2;durP2;ratioP2
52456;SDS011;38369;52.840;7.082;2023-12-07T00:01:09;25.63;;;17.48;;
52456;SDS011;38369;52.840;7.082;2023-12-07T00:03:35;20.42;;;15.18;;
52456;SDS011;38369;52.840;7.082;2023-12-07T00:06:01;23.08;;;15.57;;
52456;SDS011;38369;52.840;7.082;2023-12-07T00:08:27;23.15;;;15.68;;
52456;SDS011;38369;52.840;7.082;2023-12-07T00:10:53;20.30;;;14.88;;
52456;SDS011;38369;52.840;7.082;2023-12-07T00:13:19;22.13;;;14.85;;
52456;SDS011;38369;52.840;7.082;2023-12-07T00:15:46;20.75;;;13.55;;
52456;SDS011;38369;52.840;7.082;2023-12-07T00:18:12;23.90;;;15.10;;
52456;SDS011;38369;52.840;7.082;2023-12-07T00:20:38;25.27;;;15.40;;
52456;SDS011;38369;52.840;7.082;2023-12-07T00:23:04;18.60;;;13.80;;
52456;SDS011;38369;52.840;7.082;2023-12-07T00:25:30;19.42;;;13.55;;
52456;SDS011;38369;52.840;7.082;2023-12-07T00:27:56;23.38;;;14.40;;
52456;SDS011;38369;52.840;7.082;2023-12-07T00:30:22;21.25;;;13.52;;
52456;SDS011;38369;52.840;7.082;2023-12-07T00:32:48;21.10;;;15.27;;
52456;SDS011;38369;52.840;7.082;2023-12-07T00:35:15;15.77;;;12.63;;
52456;SDS011;38369;52.840;7.082;2023-12-07T00:37:41;19.20;;;14.50;;
52456;SDS011;38369;52.840;7.082;2023-12-07T00:40:07;20.17;;;13.85;;
52456;SDS011;38369;52.840;7.082;2023-12-07T00:42:33;20.58;;;14.02;;
52456;SDS011;38369;52.840;7.082;2023-12-07T00:45:00;20.35;;;13.30;;
52456;SDS011;38369;52.840;7.082;2023-12-07T00:47:26;17.33;;;13.55;;
52456;SDS011;38369;52.840;7.082;2023-12-07T00:49:52;18.98;;;13.98;;
52456;SDS011;38369;52.840;7.082;2023-12-07T00:52:18;18.95;;;13.93;;
52456;SDS011;38369;52.840;7.082;2023-12-07T00:54:44;21.02;;;13.80;;
52456;SDS011;38369;52.840;7.082;2023-12-07T00:57:10;19.58;;;13.23;;
52456;SDS011;38369;52.840;7.082;2023-12-07T00:59:36;23.65;;;14.23;;
52456;SDS011;38369;52.840;7.082;2023-12-07T01:02:05;19.73;;;14.25;;
52456;SDS011;38369;52.840;7.082;2023-12-07T01:04:32;19.15;;;13.85;;
52456;SDS011;38369;52.840;7.082;2023-12-07T01:06:58;17.50;;;12.20;;
52456;SDS011;38369;52.840;7.082;2023-12-07T01:09:24;18.85;;;12.65;;
52456;SDS011;38369;52.840;7.082;2023-12-07T01:11:50;21.30;;;13.65;;
52456;SDS011;38369;52.840;7.082;2023-12-07T01:14:16;21.20;;;13.23;;
52456;SDS011;38369;52.840;7.082;2023-12-07T01:16:43;22.40;;;15.00;;
52456;SDS011;38369;52.840;7.082;2023-12-07T01:19:09;19.50;;;14.07;;
52456;SDS011;38369;52.840;7.082;2023-12-07T01:21:36;18.40;;;13.48;;
52456;SDS011;38369;52.840;7.082;2023-12-07T01:24:02;19.98;;;12.52;;
52456;SDS011;38369;52.840;7.082;2023-12-07T01:26:27;21.23;;;13.95;;
52456;SDS011;38369;52.840;7.082;2023-12-07T01:28:53;22.58;;;13.90;;
52456;SDS011;38369;52.840;7.082;2023-12-07T01:31:19;23.88;;;14.95;;
52456;SDS011;38369;52.840;7.082;2023-12-07T01:33:45;19.88;;;14.68;;
52456;SDS011;38369;52.840;7.082;2023-12-07T01:36:12;22.27;;;13.23;;
52456;SDS011;38369;52.840;7.082;2023-12-07T01:38:38;20.73;;;13.90;;
52456;SDS011;38369;52.840;7.082;2023-12-07T01:41:04;23.55;;;14.13;;
52456;SDS011;38369;52.840;7.082;2023-12-07T01:43:30;18.15;;;13.23;;
52456;SDS011;38369;52.840;7.082;2023-12-07T01:45:56;19.52;;;13.85;;
52456;SDS011;38369;52.840;7.082;2023-12-07T01:48:23;19.80;;;14.05;;
52456;SDS011;38369;52.840;7.082;2023-12-07T01:50:49;19.15;;;13.20;;
52456;SDS011;38369;52.840;7.082;2023-12-07T01:53:16;20.17;;;14.13;;
52456;SDS011;38369;52.840;7.082;2023-12-07T01:55:42;18.23;;;13.95;;
52456;SDS011;38369;52.840;7.082;2023-12-07T01:58:08;18.48;;;12.95;;
52456;SDS011;38369;52.840;7.082;2023-12-07T02:00:35;32.97;;;15.02;;
52456;SDS011;38369;52.840;7.082;2023-12-07T02:03:02;20.42;;;13.48;;
52456;SDS011;38369;52.840;7.082;2023-12-07T02:05:30;25.52;;;13.90;;
52456;SDS011;38369;52.840;7.082;2023-12-07T02:07:57;18.05;;;13.68;;
52456;SDS011;38369;52.840;7.082;2023-12-07T02:10:23;18.27;;;14.18;;
52456;SDS011;38369;52.840;7.082;2023-12-07T02:12:50;18.05;;;12.75;;
52456;SDS011;38369;52.840;7.082;2023-12-07T02:15:18;20.80;;;13.52;;
52456;SDS011;38369;52.840;7.082;2023-12-07T02:22:46;20.85;;;13.55;;
52456;SDS011;38369;52.840;7.082;2023-12-07T02:25:15;15.75;;;11.07;;
52456;SDS011;38369;52.840;7.082;2023-12-07T02:27:43;18.80;;;12.90;;
52456;SDS011;38369;52.840;7.082;2023-12-07T02:30:13;19.30;;;13.97;;
52456;SDS011;38369;52.840;7.082;2023-12-07T02:32:40;16.92;;;12.43;;
52456;SDS011;38369;52.840;7.082;2023-12-07T02:35:07;18.58;;;12.90;;
52456;SDS011;38369;52.840;7.082;2023-12-07T02:37:49;17.55;;;13.00;;
52456;SDS011;38369;52.840;7.082;2023-12-07T02:40:17;19.98;;;12.02;;
52456;SDS011;38369;52.840;7.082;2023-12-07T02:42:44;19.02;;;12.70;;
52456;SDS011;38369;52.840;7.082;2023-12-07T02:45:10;20.95;;;14.15;;
52456;SDS011;38369;52.840;7.082;2023-12-07T02:47:37;17.58;;;13.07;;
52456;SDS011;38369;52.840;7.082;2023-12-07T02:50:04;18.63;;;13.13;;
52456;SDS011;38369;52.840;7.082;2023-12-07T02:52:30;19.55;;;13.05;;
52456;SDS011;38369;52.840;7.082;2023-12-07T02:54:56;18.42;;;13.48;;
52456;SDS011;38369;52.840;7.082;2023-12-07T02:57:22;18.42;;;13.63;;
52456;SDS011;38369;52.840;7.082;2023-12-07T02:59:48;21.38;;;13.18;;
52456;SDS011;38369;52.840;7.082;2023-12-07T03:02:14;21.80;;;13.25;;
52456;SDS011;38369;52.840;7.082;2023-12-07T03:04:40;18.73;;;13.10;;
52456;SDS011;38369;52.840;7.082;2023-12-07T03:07:06;20.45;;;13.15;;
52456;SDS011;38369;52.840;7.082;2023-12-07T03:09:32;19.70;;;13.85;;
52456;SDS011;38369;52.840;7.082;2023-12-07T03:11:58;20.20;;;12.82;;
52456;SDS011;38369;52.840;7.082;2023-12-07T03:14:24;23.73;;;15.43;;
52456;SDS011;38369;52.840;7.082;2023-12-07T03:16:50;19.90;;;14.25;;
52456;SDS011;38369;52.840;7.082;2023-12-07T03:19:16;21.02;;;13.07;;
52456;SDS011;38369;52.840;7.082;2023-12-07T03:21:42;21.05;;;14.15;;
52456;SDS011;38369;52.840;7.082;2023-12-07T03:24:08;21.25;;;14.00;;
52456;SDS011;38369;52.840;7.082;2023-12-07T03:26:35;23.42;;;14.63;;
52456;SDS011;38369;52.840;7.082;2023-12-07T03:29:01;24.17;;;14.40;;
52456;SDS011;38369;52.840;7.082;2023-12-07T03:31:27;25.45;;;15.40;;
52456;SDS011;38369;52.840;7.082;2023-12-07T03:33:53;22.77;;;15.82;;
52456;SDS011;38369;52.840;7.082;2023-12-07T03:36:19;25.67;;;15.10;;
52456;SDS011;38369;52.840;7.082;2023-12-07T03:38:47;21.20;;;13.65;;
52456;SDS011;38369;52.840;7.082;2023-12-07T03:41:13;20.85;;;14.07;;
52456;SDS011;38369;52.840;7.082;2023-12-07T03:43:39;24.50;;;15.63;;
52456;SDS011;38369;52.840;7.082;2023-12-07T03:46:05;22.40;;;14.60;;
52456;SDS011;38369;52.840;7.082;2023-12-07T03:48:32;25.67;;;15.02;;
52456;SDS011;38369;52.840;7.082;2023-12-07T03:50:58;23.73;;;14.63;;
52456;SDS011;38369;52.840;7.082;2023-12-07T03:53:24;19.67;;;13.88;;
52456;SDS011;38369;52.840;7.082;2023-12-07T03:55:50;22.05;;;14.30;;
52456;SDS011;38369;52.840;7.082;2023-12-07T03:58:16;29.15;;;16.15;;
52456;SDS011;38369;52.840;7.082;2023-12-07T04:00:42;23.10;;;15.55;;
52456;SDS011;38369;52.840;7.082;2023-12-07T04:03:08;21.48;;;14.55;;
52456;SDS011;38369;52.840;7.082;2023-12-07T04:05:34;22.08;;;15.15;;
52456;SDS011;38369;52.840;7.082;2023-12-07T04:08:00;26.23;;;15.75;;
52456;SDS011;38369;52.840;7.082;2023-12-07T04:10:26;26.63;;;16.70;;
52456;SDS011;38369;52.840;7.082;2023-12-07T04:12:52;27.02;;;16.08;;
52456;SDS011;38369;52.840;7.082;2023-12-07T04:15:18;25.95;;;16.50;;
52456;SDS011;38369;52.840;7.082;2023-12-07T04:17:45;25.60;;;16.63;;
52456;SDS011;38369;52.840;7.082;2023-12-07T04:20:11;25.70;;;17.13;;
52456;SDS011;38369;52.840;7.082;2023-12-07T04:22:38;24.27;;;16.10;;
52456;SDS011;38369;52.840;7.082;2023-12-07T04:25:04;29.90;;;18.08;;
52456;SDS011;38369;52.840;7.082;2023-12-07T04:27:30;27.65;;;16.42;;
52456;SDS011;38369;52.840;7.082;2023-12-07T04:29:57;26.92;;;15.77;;
52456;SDS011;38369;52.840;7.082;2023-12-07T04:32:23;26.70;;;16.58;;
52456;SDS011;38369;52.840;7.082;2023-12-07T04:34:50;29.05;;;18.20;;
52456;SDS011;38369;52.840;7.082;2023-12-07T04:37:16;27.27;;;16.13;;
52456;SDS011;38369;52.840;7.082;2023-12-07T04:39:42;29.13;;;16.38;;
52456;SDS011;38369;52.840;7.082;2023-12-07T04:42:08;25.38;;;16.02;;
52456;SDS011;38369;52.840;7.082;2023-12-07T04:44:34;28.98;;;18.52;;
52456;SDS011;38369;52.840;7.082;2023-12-07T04:47:00;26.33;;;17.40;;
52456;SDS011;38369;52.840;7.082;2023-12-07T04:49:26;28.05;;;17.10;;
52456;SDS011;38369;52.840;7.082;2023-12-07T04:51:52;27.30;;;17.55;;
52456;SDS011;38369;52.840;7.082;2023-12-07T04:54:18;28.55;;;18.52;;
52456;SDS011;38369;52.840;7.082;2023-12-07T04:56:44;29.75;;;17.77;;
52456;SDS011;38369;52.840;7.082;2023-12-07T04:59:10;29.88;;;18.73;;
52456;SDS011;38369;52.840;7.082;2023-12-07T05:01:36;29.63;;;18.92;;
52456;SDS011;38369;52.840;7.082;2023-12-07T05:04:03;28.63;;;18.75;;
52456;SDS011;38369;52.840;7.082;2023-12-07T05:06:29;25.13;;;18.27;;
52456;SDS011;38369;52.840;7.082;2023-12-07T05:08:55;26.45;;;18.05;;
52456;SDS011;38369;52.840;7.082;2023-12-07T05:11:21;28.92;;;19.27;;
52456;SDS011;38369;52.840;7.082;2023-12-07T05:13:47;30.27;;;20.75;;
52456;SDS011;38369;52.840;7.082;2023-12-07T05:16:13;32.28;;;19.70;;
52456;SDS011;38369;52.840;7.082;2023-12-07T05:18:39;31.25;;;20.92;;
52456;SDS011;38369;52.840;7.082;2023-12-07T05:21:06;28.90;;;19.13;;
52456;SDS011;38369;52.840;7.082;2023-12-07T05:23:32;32.60;;;19.23;;
52456;SDS011;38369;52.840;7.082;2023-12-07T05:25:58;29.35;;;18.60;;
52456;SDS011;38369;52.840;7.082;2023-12-07T05:28:25;30.52;;;19.23;;
52456;SDS011;38369;52.840;7.082;2023-12-07T05:30:51;30.35;;;20.08;;
52456;SDS011;38369;52.840;7.082;2023-12-07T05:33:17;33.40;;;20.77;;
52456;SDS011;38369;52.840;7.082;2023-12-07T05:35:46;31.85;;;20.50;;
52456;SDS011;38369;52.840;7.082;2023-12-07T05:38:13;47.92;;;22.73;;
52456;SDS011;38369;52.840;7.082;2023-12-07T05:40:39;31.20;;;21.35;;
52456;SDS011;38369;52.840;7.082;2023-12-07T05:43:05;34.63;;;22.38;;
52456;SDS011;38369;52.840;7.082;2023-12-07T05:45:31;32.35;;;20.25;;
52456;SDS011;38369;52.840;7.082;2023-12-07T05:47:57;34.28;;;22.42;;
52456;SDS011;38369;52.840;7.082;2023-12-07T05:50:23;33.65;;;20.65;;
52456;SDS011;38369;52.840;7.082;2023-12-07T05:52:49;32.05;;;19.98;;
52456;SDS011;38369;52.840;7.082;2023-12-07T05:55:15;32.85;;;21.40;;
52456;SDS011;38369;52.840;7.082;2023-12-07T05:57:41;34.45;;;22.90;;
52456;SDS011;38369;52.840;7.082;2023-12-07T06:00:07;36.95;;;22.40;;
52456;SDS011;38369;52.840;7.082;2023-12-07T06:02:36;37.70;;;23.55;;
52456;SDS011;38369;52.840;7.082;2023-12-07T06:05:02;36.47;;;23.98;;
52456;SDS011;38369;52.840;7.082;2023-12-07T06:07:31;40.58;;;23.05;;
52456;SDS011;38369;52.840;7.082;2023-12-07T06:09:58;39.65;;;24.58;;
52456;SDS011;38369;52.840;7.082;2023-12-07T06:12:24;38.85;;;23.63;;
52456;SDS011;38369;52.840;7.082;2023-12-07T06:14:50;44.38;;;24.98;;
52456;SDS011;38369;52.840;7.082;2023-12-07T06:17:16;43.10;;;25.10;;
52456;SDS011;38369;52.840;7.082;2023-12-07T06:19:42;39.78;;;24.88;;
52456;SDS011;38369;52.840;7.082;2023-12-07T06:22:08;37.85;;;24.33;;
52456;SDS011;38369;52.840;7.082;2023-12-07T06:24:35;37.30;;;24.67;;
52456;SDS011;38369;52.840;7.082;2023-12-07T06:27:02;35.15;;;22.23;;
52456;SDS011;38369;52.840;7.082;2023-12-07T06:29:28;37.08;;;23.65;;
52456;SDS011;38369;52.840;7.082;2023-12-07T06:31:57;40.00;;;24.30;;
52456;SDS011;38369;52.840;7.082;2023-12-07T06:34:23;33.67;;;22.98;;
52456;SDS011;38369;52.840;7.082;2023-12-07T06:36:49;38.92;;;23.02;;
52456;SDS011;38369;52.840;7.082;2023-12-07T06:39:15;35.83;;;23.27;;
52456;SDS011;38369;52.840;7.082;2023-12-07T06:41:41;46.33;;;24.38;;
52456;SDS011;38369;52.840;7.082;2023-12-07T06:44:07;34.85;;;22.35;;
52456;SDS011;38369;52.840;7.082;2023-12-07T06:46:33;36.42;;;22.25;;
52456;SDS011;38369;52.840;7.082;2023-12-07T06:48:59;36.55;;;22.45;;
52456;SDS011;38369;52.840;7.082;2023-12-07T06:51:25;37.35;;;21.73;;
52456;SDS011;38369;52.840;7.082;2023-12-07T06:53:51;37.83;;;22.98;;
52456;SDS011;38369;52.840;7.082;2023-12-07T06:56:17;36.15;;;22.23;;
52456;SDS011;38369;52.840;7.082;2023-12-07T06:58:43;39.80;;;23.25;;
52456;SDS011;38369;52.840;7.082;2023-12-07T07:01:09;34.15;;;21.85;;
52456;SDS011;38369;52.840;7.082;2023-12-07T07:03:35;36.58;;;23.38;;
52456;SDS011;38369;52.840;7.082;2023-12-07T07:06:01;37.55;;;22.92;;
52456;SDS011;38369;52.840;7.082;2023-12-07T07:08:27;37.75;;;23.17;;
52456;SDS011;38369;52.840;7.082;2023-12-07T07:10:55;40.30;;;21.85;;
52456;SDS011;38369;52.840;7.082;2023-12-07T07:13:21;33.90;;;20.10;;
52456;SDS011;38369;52.840;7.082;2023-12-07T07:15:47;30.42;;;19.77;;
52456;SDS011;38369;52.840;7.082;2023-12-07T07:18:13;32.25;;;19.95;;
52456;SDS011;38369;52.840;7.082;2023-12-07T07:20:39;35.55;;;20.25;;
52456;SDS011;38369;52.840;7.082;2023-12-07T07:23:05;34.17;;;21.95;;
52456;SDS011;38369;52.840;7.082;2023-12-07T07:25:33;33.75;;;21.55;;
52456;SDS011;38369;52.840;7.082;2023-12-07T07:27:59;34.45;;;21.30;;
52456;SDS011;38369;52.840;7.082;2023-12-07T07:30:25;37.33;;;21.60;;
52456;SDS011;38369;52.840;7.082;2023-12-07T07:32:51;36.13;;;21.70;;
52456;SDS011;38369;52.840;7.082;2023-12-07T07:35:17;36.97;;;21.90;;
52456;SDS011;38369;52.840;7.082;2023-12-07T07:37:43;37.58;;;21.73;;
52456;SDS011;38369;52.840;7.082;2023-12-07T07:40:10;35.85;;;22.02;;
52456;SDS011;38369;52.840;7.082;2023-12-07T07:42:37;39.00;;;23.50;;
52456;SDS011;38369;52.840;7.082;2023-12-07T07:45:04;33.15;;;21.27;;
52456;SDS011;38369;52.840;7.082;2023-12-07T07:47:30;33.88;;;22.20;;
52456;SDS011;38369;52.840;7.082;2023-12-07T07:49:57;33.83;;;20.15;;
52456;SDS011;38369;52.840;7.082;2023-12-07T07:52:23;35.17;;;22.25;;
52456;SDS011;38369;52.840;7.082;2023-12-07T07:54:49;38.78;;;23.13;;
52456;SDS011;38369;52.840;7.082;2023-12-07T07:57:16;37.35;;;23.95;;
52456;SDS011;38369;52.840;7.082;2023-12-07T07:59:42;41.95;;;24.25;;
52456;SDS011;38369;52.840;7.082;2023-12-07T08:02:08;38.22;;;23.90;;
52456;SDS011;38369;52.840;7.082;2023-12-07T08:04:34;39.47;;;23.77;;
52456;SDS011;38369;52.840;7.082;2023-12-07T08:07:01;33.38;;;21.17;;
52456;SDS011;38369;52.840;7.082;2023-12-07T08:09:26;40.97;;;22.75;;
52456;SDS011;38369;52.840;7.082;2023-12-07T08:11:52;40.20;;;24.52;;
52456;SDS011;38369;52.840;7.082;2023-12-07T08:14:18;40.97;;;20.85;;
52456;SDS011;38369;52.840;7.082;2023-12-07T08:16:44;37.45;;;22.58;;
52456;SDS011;38369;52.840;7.082;2023-12-07T08:19:11;41.75;;;24.00;;
52456;SDS011;38369;52.840;7.082;2023-12-07T08:21:38;42.30;;;24.55;;
52456;SDS011;38369;52.840;7.082;2023-12-07T08:24:04;42.08;;;23.38;;
52456;SDS011;38369;52.840;7.082;2023-12-07T08:26:31;37.20;;;23.67;;
52456;SDS011;38369;52.840;7.082;2023-12-07T08:28:57;35.08;;;22.63;;
52456;SDS011;38369;52.840;7.082;2023-12-07T08:31:23;43.65;;;25.60;;
52456;SDS011;38369;52.840;7.082;2023-12-07T08:33:50;37.70;;;24.38;;
52456;SDS011;38369;52.840;7.082;2023-12-07T08:36:16;38.67;;;24.92;;
52456;SDS011;38369;52.840;7.082;2023-12-07T08:38:42;38.75;;;24.35;;
52456;SDS011;38369;52.840;7.082;2023-12-07T08:41:08;40.05;;;26.15;;
52456;SDS011;38369;52.840;7.082;2023-12-07T08:43:34;54.08;;;32.65;;
52456;SDS011;38369;52.840;7.082;2023-12-07T08:46:00;62.33;;;37.60;;
52456;SDS011;38369;52.840;7.082;2023-12-07T08:48:26;44.05;;;28.08;;
52456;SDS011;38369;52.840;7.082;2023-12-07T08:50:52;42.70;;;25.70;;
52456;SDS011;38369;52.840;7.082;2023-12-07T08:53:18;40.78;;;25.95;;
52456;SDS011;38369;52.840;7.082;2023-12-07T08:55:44;39.83;;;23.95;;
52456;SDS011;38369;52.840;7.082;2023-12-07T08:58:10;46.38;;;28.13;;
52456;SDS011;38369;52.840;7.082;2023-12-07T09:00:37;42.83;;;28.02;;
52456;SDS011;38369;52.840;7.082;2023-12-07T09:03:03;43.92;;;27.85;;
52456;SDS011;38369;52.840;7.082;2023-12-07T09:05:29;46.45;;;28.27;;
52456;SDS011;38369;52.840;7.082;2023-12-07T09:07:55;43.50;;;27.90;;
52456;SDS011;38369;52.840;7.082;2023-12-07T09:10:22;44.90;;;26.25;;
52456;SDS011;38369;52.840;7.082;2023-12-07T09:12:48;47.20;;;30.50;;
52456;SDS011;38369;52.840;7.082;2023-12-07T09:15:14;43.75;;;28.15;;
52456;SDS011;38369;52.840;7.082;2023-12-07T09:17:41;41.88;;;27.00;;
52456;SDS011;38369;52.840;7.082;2023-12-07T09:20:07;45.42;;;28.65;;
52456;SDS011;38369;52.840;7.082;2023-12-07T09:22:41;44.55;;;28.50;;
52456;SDS011;38369;52.840;7.082;2023-12-07T09:25:08;45.83;;;27.67;;
52456;SDS011;38369;52.840;7.082;2023-12-07T09:27:35;45.85;;;27.85;;
52456;SDS011;38369;52.840;7.082;2023-12-07T09:30:03;43.03;;;27.73;;
52456;SDS011;38369;52.840;7.082;2023-12-07T09:32:29;44.83;;;28.65;;
52456;SDS011;38369;52.840;7.082;2023-12-07T09:34:55;44.67;;;28.55;;
52456;SDS011;38369;52.840;7.082;2023-12-07T09:37:21;45.40;;;29.95;;
52456;SDS011;38369;52.840;7.082;2023-12-07T09:39:47;49.67;;;29.70;;
52456;SDS011;38369;52.840;7.082;2023-12-07T09:42:13;48.90;;;29.27;;
52456;SDS011;38369;52.840;7.082;2023-12-07T09:44:39;47.00;;;29.58;;
52456;SDS011;38369;52.840;7.082;2023-12-07T09:47:05;48.50;;;29.70;;
52456;SDS011;38369;52.840;7.082;2023-12-07T09:49:31;49.47;;;30.83;;
52456;SDS011;38369;52.840;7.082;2023-12-07T09:51:58;48.47;;;27.45;;
52456;SDS011;38369;52.840;7.082;2023-12-07T09:54:24;59.53;;;29.98;;
52456;SDS011;38369;52.840;7.082;2023-12-07T09:56:52;81.00;;;29.80;;
52456;SDS011;38369;52.840;7.082;2023-12-07T09:59:19;98.22;;;26.10;;
52456;SDS011;38369;52.840;7.082;2023-12-07T10:01:46;166.57;;;28.65;;
52456;SDS011;38369;52.840;7.082;2023-12-07T10:04:15;147.55;;;27.23;;
52456;SDS011;38369;52.840;7.082;2023-12-07T10:06:42;72.53;;;23.92;;
52456;SDS011;38369;52.840;7.082;2023-12-07T10:09:13;80.70;;;24.02;;
52456;SDS011;38369;52.840;7.082;2023-12-07T10:11:40;104.40;;;28.98;;
52456;SDS011;38369;52.840;7.082;2023-12-07T10:14:06;75.53;;;25.95;;
52456;SDS011;38369;52.840;7.082;2023-12-07T10:16:36;92.88;;;27.63;;
52456;SDS011;38369;52.840;7.082;2023-12-07T10:19:15;80.90;;;26.00;;
52456;SDS011;38369;52.840;7.082;2023-12-07T10:21:47;70.55;;;28.67;;
52456;SDS011;38369;52.840;7.082;2023-12-07T10:24:13;109.82;;;31.05;;
52456;SDS011;38369;52.840;7.082;2023-12-07T10:26:41;73.97;;;27.00;;
52456;SDS011;38369;52.840;7.082;2023-12-07T10:29:09;70.75;;;26.08;;
52456;SDS011;38369;52.840;7.082;2023-12-07T10:31:36;58.83;;;26.27;;
52456;SDS011;38369;52.840;7.082;2023-12-07T10:34:02;61.47;;;26.15;;
52456;SDS011;38369;52.840;7.082;2023-12-07T10:36:29;69.57;;;26.85;;
52456;SDS011;38369;52.840;7.082;2023-12-07T10:38:55;95.32;;;29.10;;
52456;SDS011;38369;52.840;7.082;2023-12-07T10:41:22;67.47;;;27.55;;
52456;SDS011;38369;52.840;7.082;2023-12-07T10:43:54;55.55;;;27.77;;
52456;SDS011;38369;52.840;7.082;2023-12-07T10:46:24;72.57;;;28.48;;
52456;SDS011;38369;52.840;7.082;2023-12-07T10:48:52;65.28;;;27.45;;
52456;SDS011;38369;52.840;7.082;2023-12-07T10:51:31;72.60;;;30.00;;
52456;SDS011;38369;52.840;7.082;2023-12-07T10:54:02;63.20;;;30.25;;
52456;SDS011;38369;52.840;7.082;2023-12-07T10:56:29;96.13;;;32.05;;
52456;SDS011;38369;52.840;7.082;2023-12-07T10:58:55;86.05;;;30.92;;
52456;SDS011;38369;52.840;7.082;2023-12-07T11:01:22;78.88;;;30.63;;
52456;SDS011;38369;52.840;7.082;2023-12-07T11:03:49;118.95;;;37.05;;
52456;SDS011;38369;52.840;7.082;2023-12-07T11:06:15;92.47;;;32.63;;
52456;SDS011;38369;52.840;7.082;2023-12-07T11:08:49;74.57;;;32.22;;
52456;SDS011;38369;52.840;7.082;2023-12-07T11:16:45;157.70;;;42.47;;
52456;SDS011;38369;52.840;7.082;2023-12-07T11:22:01;93.00;;;35.22;;
52456;SDS011;38369;52.840;7.082;2023-12-07T11:24:27;121.07;;;36.25;;
52456;SDS011;38369;52.840;7.082;2023-12-07T11:26:56;116.25;;;37.63;;
52456;SDS011;38369;52.840;7.082;2023-12-07T11:29:26;101.95;;;37.10;;
52456;SDS011;38369;52.840;7.082;2023-12-07T11:31:59;100.85;;;35.80;;
52456;SDS011;38369;52.840;7.082;2023-12-07T11:34:39;106.60;;;35.15;;
52456;SDS011;38369;52.840;7.082;2023-12-07T11:37:13;78.70;;;34.40;;
52456;SDS011;38369;52.840;7.082;2023-12-07T11:39:41;83.80;;;32.63;;
52456;SDS011;38369;52.840;7.082;2023-12-07T11:42:11;175.20;;;41.42;;
52456;SDS011;38369;52.840;7.082;2023-12-07T11:44:37;100.00;;;33.65;;
52456;SDS011;38369;52.840;7.082;2023-12-07T11:47:04;113.47;;;37.08;;
52456;SDS011;38369;52.840;7.082;2023-12-07T11:49:30;90.43;;;33.35;;
52456;SDS011;38369;52.840;7.082;2023-12-07T11:51:57;118.57;;;38.97;;
52456;SDS011;38369;52.840;7.082;2023-12-07T11:54:23;93.72;;;33.55;;
52456;SDS011;38369;52.840;7.082;2023-12-07T11:56:56;95.97;;;36.15;;
52456;SDS011;38369;52.840;7.082;2023-12-07T11:59:23;122.82;;;38.50;;
52456;SDS011;38369;52.840;7.082;2023-12-07T12:01:51;177.35;;;39.17;;
52456;SDS011;38369;52.840;7.082;2023-12-07T12:04:17;131.23;;;39.45;;
52456;SDS011;38369;52.840;7.082;2023-12-07T12:06:44;115.80;;;38.22;;
52456;SDS011;38369;52.840;7.082;2023-12-07T12:09:14;142.95;;;38.25;;
52456;SDS011;38369;52.840;7.082;2023-12-07T12:11:49;116.07;;;34.88;;
52456;SDS011;38369;52.840;7.082;2023-12-07T12:14:15;172.18;;;40.58;;
52456;SDS011;38369;52.840;7.082;2023-12-07T12:16:42;115.63;;;35.72;;
52456;SDS011;38369;52.840;7.082;2023-12-07T12:19:08;160.20;;;43.47;;
52456;SDS011;38369;52.840;7.082;2023-12-07T12:21:35;117.40;;;40.83;;
52456;SDS011;38369;52.840;7.082;2023-12-07T12:24:03;123.78;;;41.95;;
52456;SDS011;38369;52.840;7.082;2023-12-07T12:26:29;182.00;;;46.25;;
52456;SDS011;38369;52.840;7.082;2023-12-07T12:28:55;131.68;;;39.10;;
52456;SDS011;38369;52.840;7.082;2023-12-07T12:31:22;124.00;;;40.50;;
52456;SDS011;38369;52.840;7.082;2023-12-07T12:33:48;104.40;;;36.65;;
52456;SDS011;38369;52.840;7.082;2023-12-07T12:36:15;103.18;;;35.85;;
52456;SDS011;38369;52.840;7.082;2023-12-07T12:38:46;107.60;;;36.90;;
52456;SDS011;38369;52.840;7.082;2023-12-07T12:41:12;144.70;;;41.42;;
52456;SDS011;38369;52.840;7.082;2023-12-07T12:43:39;112.65;;;37.85;;
52456;SDS011;38369;52.840;7.082;2023-12-07T12:46:05;109.97;;;35.50;;
52456;SDS011;38369;52.840;7.082;2023-12-07T12:48:31;137.00;;;41.22;;
52456;SDS011;38369;52.840;7.082;2023-12-07T12:50:57;148.85;;;41.30;;
52456;SDS011;38369;52.840;7.082;2023-12-07T12:53:23;130.00;;;39.13;;
52456;SDS011;38369;52.840;7.082;2023-12-07T12:55:50;112.13;;;38.05;;
52456;SDS011;38369;52.840;7.082;2023-12-07T12:58:16;123.90;;;39.63;;
52456;SDS011;38369;52.840;7.082;2023-12-07T13:00:42;148.15;;;45.95;;
52456;SDS011;38369;52.840;7.082;2023-12-07T13:03:09;155.05;;;41.83;;
52456;SDS011;38369;52.840;7.082;2023-12-07T13:05:38;174.48;;;44.72;;
52456;SDS011;38369;52.840;7.082;2023-12-07T13:08:04;126.88;;;41.30;;
52456;SDS011;38369;52.840;7.082;2023-12-07T13:10:30;128.30;;;41.13;;
52456;SDS011;38369;52.840;7.082;2023-12-07T13:12:56;172.55;;;44.75;;
52456;SDS011;38369;52.840;7.082;2023-12-07T13:15:23;168.00;;;45.30;;
52456;SDS011;38369;52.840;7.082;2023-12-07T13:17:50;160.90;;;45.65;;
52456;SDS011;38369;52.840;7.082;2023-12-07T13:20:16;171.27;;;50.45;;
52456;SDS011;38369;52.840;7.082;2023-12-07T13:22:42;153.48;;;44.53;;
52456;SDS011;38369;52.840;7.082;2023-12-07T13:25:08;160.80;;;42.95;;
52456;SDS011;38369;52.840;7.082;2023-12-07T13:27:35;126.72;;;42.20;;
52456;SDS011;38369;52.840;7.082;2023-12-07T13:30:04;140.60;;;44.63;;
52456;SDS011;38369;52.840;7.082;2023-12-07T13:32:32;186.35;;;51.58;;
52456;SDS011;38369;52.840;7.082;2023-12-07T13:34:58;150.02;;;45.08;;
52456;SDS011;38369;52.840;7.082;2023-12-07T13:37:24;159.73;;;46.90;;
52456;SDS011;38369;52.840;7.082;2023-12-07T13:39:50;122.47;;;44.58;;
52456;SDS011;38369;52.840;7.082;2023-12-07T13:42:21;132.55;;;42.05;;
52456;SDS011;38369;52.840;7.082;2023-12-07T13:44:47;124.32;;;41.50;;
52456;SDS011;38369;52.840;7.082;2023-12-07T13:47:17;125.18;;;46.13;;
52456;SDS011;38369;52.840;7.082;2023-12-07T13:49:43;152.35;;;48.25;;
52456;SDS011;38369;52.840;7.082;2023-12-07T13:52:09;132.32;;;45.97;;
52456;SDS011;38369;52.840;7.082;2023-12-07T13:54:35;121.05;;;43.97;;
52456;SDS011;38369;52.840;7.082;2023-12-07T13:57:01;146.40;;;49.83;;
52456;SDS011;38369;52.840;7.082;2023-12-07T13:59:28;148.73;;;48.25;;
52456;SDS011;38369;52.840;7.082;2023-12-07T14:01:54;150.90;;;50.38;;
52456;SDS011;38369;52.840;7.082;2023-12-07T14:04:20;167.43;;;52.47;;
52456;SDS011;38369;52.840;7.082;2023-12-07T14:06:47;163.68;;;50.28;;
52456;SDS011;38369;52.840;7.082;2023-12-07T14:09:13;155.50;;;49.53;;
52456;SDS011;38369;52.840;7.082;2023-12-07T14:11:40;145.68;;;48.70;;
52456;SDS011;38369;52.840;7.082;2023-12-07T14:14:06;135.77;;;45.10;;
52456;SDS011;38369;52.840;7.082;2023-12-07T14:16:32;148.88;;;45.90;;
52456;SDS011;38369;52.840;7.082;2023-12-07T14:18:58;138.80;;;48.50;;
52456;SDS011;38369;52.840;7.082;2023-12-07T14:21:24;132.77;;;46.63;;
52456;SDS011;38369;52.840;7.082;2023-12-07T14:23:50;151.18;;;50.90;;
52456;SDS011;38369;52.840;7.082;2023-12-07T14:26:19;169.23;;;49.67;;
52456;SDS011;38369;52.840;7.082;2023-12-07T14:28:45;141.52;;;48.75;;